Time;durP1;ratioP1;P1;durP2;ratioP2;P2;SDS_P1;SDS_P2;PMS_P1;PMS_P2;Temp;Humidity;BMP_temperature;BMP_pressure;BME280_temperature;BME280_humidity;BME280_pressure;Samples;Min_cycle;Max_cycle;Signal;HPM_P1;HPM_P2
2023/12/24 00:01:04;;;;;;;3.43;2.60;;;14.90;99.90;;;;;;5070987;28;20513;-7
2023/12/24 00:03:31;;;;;;;3.77;2.17;;;14.90;99.90;;;;;;5080183;28;20154;-7
2023/12/24 00:05:56;;;;;;;3.30;2.20;;;14.90;99.90;;;;;;5062936;28;20732;-7
2023/12/24 00:08:23;;;;;;;2.90;2.20;;;14.90;99.90;;;;;;5080021;28;20179;-6
2023/12/24 00:10:48;;;;;;;2.87;1.90;;;14.90;99.90;;;;;;5080106;28;20762;-6
2023/12/24 00:13:14;;;;;;;3.47;2.20;;;14.80;99.90;;;;;;5061620;28;20167;-6
2023/12/24 00:15:39;;;;;;;5.07;2.50;;;14.80;99.90;;;;;;5079742;28;20638;-6
2023/12/24 00:18:15;;;;;;;5.00;2.50;;;14.80;99.90;;;;;;5079672;28;20702;-6
2023/12/24 00:20:40;;;;;;;3.37;2.30;;;14.80;99.90;;;;;;5062761;28;20614;-7
2023/12/24 00:23:08;;;;;;;2.60;1.90;;;14.80;99.90;;;;;;5079822;28;20284;-6
2023/12/24 00:25:40;;;;;;;2.73;1.93;;;14.80;99.90;;;;;;5062274;28;20211;-6
2023/12/24 00:28:08;;;;;;;3.20;2.30;;;14.80;99.90;;;;;;5062478;28;20205;-6
2023/12/24 00:30:35;;;;;;;3.93;2.27;;;14.80;99.90;;;;;;5079245;28;20539;-7
2023/12/24 00:33:01;;;;;;;2.93;2.17;;;14.80;99.90;;;;;;5061787;28;20232;-7
2023/12/24 00:35:27;;;;;;;3.53;2.00;;;14.80;99.90;;;;;;5062137;28;20167;-7
2023/12/24 00:38:03;;;;;;;2.90;2.00;;;14.80;99.90;;;;;;5079274;28;20167;-7
2023/12/24 00:40:30;;;;;;;4.37;1.90;;;14.80;99.90;;;;;;5079137;28;20228;-6
2023/12/24 00:42:56;;;;;;;2.40;1.83;;;14.80;99.90;;;;;;5079312;28;20169;-6
2023/12/24 00:45:21;;;;;;;2.60;1.80;;;14.80;99.90;;;;;;5078662;28;20215;-6
2023/12/24 00:47:48;;;;;;;2.33;1.67;;;14.80;99.90;;;;;;5079179;28;20163;-6
2023/12/24 00:50:14;;;;;;;2.70;1.80;;;14.80;99.90;;;;;;5062210;28;20632;-7
2023/12/24 00:52:40;;;;;;;2.93;1.60;;;14.70;99.90;;;;;;5061418;28;20164;-6
2023/12/24 00:55:06;;;;;;;2.87;1.97;;;14.80;99.90;;;;;;5079176;28;20178;-6
2023/12/24 00:57:38;;;;;;;3.73;1.60;;;14.80;99.90;;;;;;5095251;28;20179;-6
2023/12/24 01:02:35;;;;;;;2.70;1.70;;;14.70;99.90;;;;;;5100177;22;20236;-6
2023/12/24 01:05:01;;;;;;;2.27;1.77;;;14.80;99.90;;;;;;5095585;28;20213;-7
2023/12/24 01:07:26;;;;;;;2.17;1.60;;;14.80;99.90;;;;;;5095924;28;20176;-7
2023/12/24 01:09:52;;;;;;;2.30;1.50;;;14.70;99.90;;;;;;5094481;28;20185;-7
2023/12/24 01:12:18;;;;;;;2.20;1.50;;;14.70;99.90;;;;;;5077119;28;20274;-7
2023/12/24 01:14:44;;;;;;;2.33;1.60;;;14.70;99.90;;;;;;5094500;28;20258;-6
2023/12/24 01:17:09;;;;;;;1.77;1.50;;;14.70;99.90;;;;;;5095228;28;20212;-7
2023/12/24 01:19:35;;;;;;;2.17;1.50;;;14.70;99.90;;;;;;5095087;28;20206;-7
2023/12/24 01:22:01;;;;;;;2.87;1.50;;;14.70;99.90;;;;;;5093801;28;20243;-7
2023/12/24 01:24:27;;;;;;;2.53;1.30;;;14.70;99.90;;;;;;5075503;28;20190;-7
2023/12/24 01:26:53;;;;;;;2.47;1.50;;;14.70;99.90;;;;;;5075710;28;20231;-7
2023/12/24 01:29:21;;;;;;;2.17;1.33;;;14.70;99.90;;;;;;5080898;28;20176;-7
2023/12/24 01:31:48;;;;;;;1.50;1.30;;;14.70;99.90;;;;;;5078520;28;20153;-7
2023/12/24 01:34:14;;;;;;;2.50;1.40;;;14.70;99.90;;;;;;5078453;28;20156;-6
2023/12/24 01:36:40;;;;;;;1.67;1.27;;;14.70;99.90;;;;;;5078711;28;20186;-7
2023/12/24 01:39:43;;;;;;;2.47;1.30;;;14.70;99.90;;;;;;5061551;28;20170;-7
2023/12/24 01:42:09;;;;;;;2.93;1.30;;;14.70;99.90;;;;;;5061203;28;20319;-7
2023/12/24 01:44:34;;;;;;;3.03;1.60;;;14.70;99.90;;;;;;5072879;28;20750;-7
2023/12/24 01:47:00;;;;;;;2.10;1.50;;;14.70;99.90;;;;;;5080903;28;20173;-6
2023/12/24 01:49:45;;;;;;;1.47;1.10;;;14.70;99.90;;;;;;5098659;28;20149;-7
2023/12/24 01:52:12;;;;;;;2.30;1.30;;;14.70;99.90;;;;;;5081101;28;20185;-6
2023/12/24 01:54:38;;;;;;;2.43;1.50;;;14.70;99.90;;;;;;5098528;28;20597;-7
2023/12/24 01:57:04;;;;;;;1.50;1.37;;;14.70;99.90;;;;;;5098307;28;20172;-7
2023/12/24 01:59:42;;;;;;;1.83;1.30;;;14.60;99.90;;;;;;5098462;28;20440;-7
2023/12/24 02:02:09;;;;;;;2.57;1.43;;;14.70;99.90;;;;;;5080999;28;20208;-6
2023/12/24 02:04:35;;;;;;;1.50;1.33;;;14.70;99.90;;;;;;5098324;28;20629;-6
2023/12/24 02:07:02;;;;;;;1.50;1.30;;;14.70;99.90;;;;;;5097977;28;20173;-6
2023/12/24 02:09:28;;;;;;;1.80;1.37;;;14.70;99.90;;;;;;5098093;28;20210;-7
2023/12/24 02:11:54;;;;;;;2.07;1.23;;;14.60;99.90;;;;;;5079771;28;20209;-6
2023/12/24 02:14:19;;;;;;;1.90;1.30;;;14.60;99.90;;;;;;5080201;28;20529;-6
2023/12/24 02:16:47;;;;;;;1.80;1.20;;;14.60;99.90;;;;;;5097709;28;20171;-7
2023/12/24 02:19:20;;;;;;;1.70;1.13;;;14.70;99.90;;;;;;5079837;28;20272;-6
2023/12/24 02:21:46;;;;;;;2.00;1.30;;;14.70;99.90;;;;;;5097586;28;20164;-7
2023/12/24 02:24:14;;;;;;;2.30;1.13;;;14.70;99.90;;;;;;5097895;28;20173;-7
2023/12/24 02:27:06;;;;;;;1.20;1.10;;;14.60;99.90;;;;;;5097523;28;20204;-7
2023/12/24 02:29:37;;;;;;;2.03;1.10;;;14.70;99.90;;;;;;5078698;28;20188;-7
2023/12/24 02:32:17;;;;;;;1.33;1.10;;;14.60;99.90;;;;;;5097692;28;20200;-7
2023/12/24 02:34:47;;;;;;;1.53;1.10;;;14.70;99.90;;;;;;5080359;28;20698;-7
2023/12/24 02:37:14;;;;;;;3.00;1.13;;;14.70;99.90;;;;;;5097370;28;20174;-7
2023/12/24 02:39:41;;;;;;;2.30;1.20;;;14.70;99.90;;;;;;5097512;28;20166;-7
2023/12/24 02:42:07;;;;;;;1.60;1.17;;;14.70;99.90;;;;;;5097635;28;20435;-7
2023/12/24 02:44:35;;;;;;;2.23;1.20;;;14.70;99.90;;;;;;5097550;28;20165;-6
2023/12/24 02:47:00;;;;;;;2.17;1.17;;;14.70;99.90;;;;;;5098224;28;20218;-7
2023/12/24 02:49:26;;;;;;;2.30;1.10;;;14.60;99.90;;;;;;5097758;28;20253;-6
2023/12/24 02:51:52;;;;;;;1.63;1.03;;;14.60;99.90;;;;;;5097462;28;20166;-7
2023/12/24 02:54:17;;;;;;;1.87;0.90;;;14.70;99.90;;;;;;5079569;28;20291;-6
2023/12/24 02:56:43;;;;;;;1.93;1.10;;;14.70;99.90;;;;;;5097340;28;20183;-7
2023/12/24 02:59:09;;;;;;;1.00;0.90;;;14.60;99.90;;;;;;5097243;28;20581;-7
2023/12/24 03:01:35;;;;;;;1.73;1.00;;;14.60;99.90;;;;;;5097517;28;20194;-6
2023/12/24 03:04:09;;;;;;;1.20;0.90;;;14.60;99.90;;;;;;5080095;28;20186;-7
2023/12/24 03:06:34;;;;;;;1.60;0.93;;;14.60;99.90;;;;;;5097142;28;20280;-6
2023/12/24 03:09:00;;;;;;;1.40;1.00;;;14.60;99.90;;;;;;5079514;28;20584;-7
2023/12/24 03:11:26;;;;;;;1.77;0.90;;;14.60;99.90;;;;;;5096862;28;20171;-7
2023/12/24 03:13:59;;;;;;;1.30;0.90;;;14.60;99.90;;;;;;5079434;28;20173;-6
2023/12/24 03:16:25;;;;;;;1.67;1.17;;;14.60;99.90;;;;;;5079210;28;20516;-7
2023/12/24 03:18:50;;;;;;;1.00;0.90;;;14.60;99.90;;;;;;5079478;28;20311;-7
2023/12/24 03:21:16;;;;;;;1.47;1.00;;;14.60;99.90;;;;;;5079099;28;20205;-6
2023/12/24 03:26:27;;;;;;;1.13;0.83;;;14.60;99.90;;;;;;5097405;28;20226;-7
2023/12/24 03:28:53;;;;;;;1.60;0.90;;;14.60;99.90;;;;;;5079679;28;20171;-7
2023/12/24 03:31:19;;;;;;;1.70;0.90;;;14.60;99.90;;;;;;5080070;28;20177;-6
2023/12/24 03:33:44;;;;;;;1.67;0.80;;;14.60;99.90;;;;;;5097531;28;20629;-6
2023/12/24 03:36:10;;;;;;;1.33;1.00;;;14.60;99.90;;;;;;5079860;28;20194;-7
2023/12/24 03:38:36;;;;;;;1.33;0.87;;;14.60;99.90;;;;;;5080345;28;20211;-7
2023/12/24 03:41:02;;;;;;;1.80;0.80;;;14.60;99.90;;;;;;5080152;28;20210;-7
2023/12/24 03:43:29;;;;;;;1.20;0.93;;;14.60;99.90;;;;;;5097139;28;20183;-7
2023/12/24 03:46:00;;;;;;;1.17;0.80;;;14.60;99.90;;;;;;5097406;28;20202;-7
2023/12/24 03:48:26;;;;;;;1.07;0.80;;;14.60;99.90;;;;;;5097957;28;20188;-7
2023/12/24 03:50:51;;;;;;;1.37;0.87;;;14.60;99.90;;;;;;5101488;28;20574;-6
2023/12/24 03:53:17;;;;;;;0.83;0.83;;;14.60;99.90;;;;;;5083720;28;20171;-7
2023/12/24 03:55:49;;;;;;;1.10;1.00;;;14.60;99.90;;;;;;5082780;28;20175;-7
2023/12/24 03:58:14;;;;;;;1.47;0.70;;;14.60;99.90;;;;;;5100744;28;20271;-7
2023/12/24 04:00:40;;;;;;;1.17;0.83;;;14.60;99.90;;;;;;5082746;28;20281;-7
2023/12/24 04:03:06;;;;;;;0.90;0.80;;;14.60;99.90;;;;;;5100719;28;20242;-7
2023/12/24 04:05:37;;;;;;;0.97;0.80;;;14.60;99.90;;;;;;5082676;28;20208;-7
2023/12/24 04:08:04;;;;;;;1.03;0.90;;;14.60;99.90;;;;;;5100018;28;20668;-7
2023/12/24 04:10:31;;;;;;;1.80;0.90;;;14.60;99.90;;;;;;5100142;28;20145;-7
2023/12/24 04:13:01;;;;;;;0.70;0.70;;;14.60;99.90;;;;;;5100429;28;20167;-7
2023/12/24 04:15:38;;;;;;;0.90;0.77;;;14.60;99.90;;;;;;5100212;28;20220;-6
2023/12/24 04:18:04;;;;;;;0.70;0.70;;;14.60;99.90;;;;;;5099863;28;20165;-7
2023/12/24 04:20:30;;;;;;;1.60;0.83;;;14.60;99.90;;;;;;5082581;28;20171;-6
2023/12/24 04:22:55;;;;;;;0.70;0.70;;;14.60;99.90;;;;;;5100450;28;20168;-7
2023/12/24 04:25:36;;;;;;;1.77;0.80;;;14.60;99.90;;;;;;5099889;28;20191;-7
2023/12/24 04:28:02;;;;;;;0.80;0.70;;;14.60;99.90;;;;;;5099657;28;20213;-7
2023/12/24 04:30:27;;;;;;;1.53;0.60;;;14.60;99.90;;;;;;5082415;28;20224;-6
2023/12/24 04:32:53;;;;;;;0.87;0.63;;;14.60;99.90;;;;;;5082044;28;20185;-6
2023/12/24 04:35:19;;;;;;;0.60;0.60;;;14.60;99.90;;;;;;5082718;28;20179;-6
2023/12/24 04:37:45;;;;;;;1.00;0.80;;;14.60;99.90;;;;;;5100374;28;20522;-7
2023/12/24 04:40:11;;;;;;;0.73;0.70;;;14.60;99.90;;;;;;5099766;28;20183;-7
2023/12/24 04:42:37;;;;;;;0.87;0.80;;;14.60;99.90;;;;;;5082455;28;20203;-7
2023/12/24 04:45:03;;;;;;;0.60;0.60;;;14.60;99.90;;;;;;5082331;28;20230;-7
2023/12/24 04:47:29;;;;;;;0.97;0.80;;;14.60;99.90;;;;;;5099914;28;20170;-6
2023/12/24 04:49:55;;;;;;;0.80;0.60;;;14.60;99.90;;;;;;5082507;28;20171;-7
2023/12/24 04:52:20;;;;;;;0.60;0.60;;;14.60;99.90;;;;;;5081989;28;20171;-7
2023/12/24 04:54:46;;;;;;;0.83;0.70;;;14.60;99.90;;;;;;5099793;28;20193;-7
2023/12/24 04:57:18;;;;;;;0.67;0.60;;;14.60;99.90;;;;;;5099651;28;20218;-7
2023/12/24 04:59:43;;;;;;;0.50;0.50;;;14.60;99.90;;;;;;5099327;28;20164;-6
2023/12/24 05:02:09;;;;;;;1.13;0.80;;;14.60;99.90;;;;;;5099124;28;20205;-7
2023/12/24 05:04:35;;;;;;;0.53;0.53;;;14.60;99.90;;;;;;5099029;28;20179;-7
2023/12/24 05:07:08;;;;;;;0.53;0.53;;;14.60;99.90;;;;;;5099635;28;20175;-7
2023/12/24 05:09:34;;;;;;;0.60;0.60;;;14.60;99.90;;;;;;5099336;28;20565;-6
2023/12/24 05:12:00;;;;;;;0.60;0.60;;;14.60;99.90;;;;;;5084230;28;20571;-7
2023/12/24 05:14:25;;;;;;;0.63;0.60;;;14.60;99.90;;;;;;5077495;28;20247;-7
2023/12/24 05:16:51;;;;;;;0.37;0.37;;;14.60;99.90;;;;;;5078657;28;20166;-7
2023/12/24 05:19:17;;;;;;;0.50;0.50;;;14.60;99.90;;;;;;5077072;28;20168;-6
2023/12/24 05:21:43;;;;;;;0.80;0.60;;;14.60;99.90;;;;;;5079241;28;20167;-6
2023/12/24 05:24:08;;;;;;;0.53;0.53;;;14.60;99.90;;;;;;5077677;28;20186;-7
2023/12/24 05:26:39;;;;;;;0.80;0.50;;;14.60;99.90;;;;;;5078393;28;20210;-7
2023/12/24 05:29:04;;;;;;;0.47;0.40;;;14.60;99.90;;;;;;5078332;28;20283;-7
2023/12/24 05:31:30;;;;;;;0.47;0.47;;;14.60;99.90;;;;;;5078302;28;20173;-8
2023/12/24 05:33:56;;;;;;;0.40;0.40;;;14.60;99.90;;;;;;5077831;28;20169;-7
2023/12/24 05:36:28;;;;;;;0.87;0.50;;;14.60;99.90;;;;;;5078535;28;20185;-8
2023/12/24 05:38:54;;;;;;;0.53;0.53;;;14.60;99.90;;;;;;5076724;28;20172;-7
2023/12/24 05:41:20;;;;;;;0.50;0.50;;;14.60;99.90;;;;;;5074120;28;20173;-7
2023/12/24 05:43:45;;;;;;;0.60;0.60;;;14.60;99.90;;;;;;5074717;28;20176;-7
2023/12/24 05:46:13;;;;;;;0.40;0.40;;;14.60;99.90;;;;;;5074509;28;20202;-8
2023/12/24 05:48:39;;;;;;;0.40;0.40;;;14.60;99.90;;;;;;5073293;28;20172;-7
2023/12/24 05:51:05;;;;;;;0.70;0.60;;;14.60;99.90;;;;;;5073168;28;20238;-8
2023/12/24 05:53:30;;;;;;;0.90;0.60;;;14.60;99.90;;;;;;5073663;28;20401;-6
2023/12/24 05:55:56;;;;;;;0.50;0.50;;;14.60;99.90;;;;;;5075666;28;20237;-7
2023/12/24 05:58:22;;;;;;;0.93;0.50;;;14.60;99.90;;;;;;5074571;28;20176;-6
2023/12/24 06:00:47;;;;;;;0.50;0.50;;;14.60;99.90;;;;;;5072190;28;20186;-6
2023/12/24 06:03:13;;;;;;;0.40;0.40;;;14.60;99.90;;;;;;5072813;28;20174;-7
2023/12/24 06:05:39;;;;;;;0.30;0.30;;;14.60;99.90;;;;;;5073877;28;20218;-7
2023/12/24 06:08:06;;;;;;;0.40;0.40;;;14.60;99.90;;;;;;5073067;28;20173;-7
2023/12/24 06:10:33;;;;;;;0.50;0.50;;;14.60;99.90;;;;;;5076784;28;20179;-6
2023/12/24 06:12:59;;;;;;;0.30;0.30;;;14.60;99.90;;;;;;5076893;28;20245;-6
2023/12/24 06:15:31;;;;;;;0.50;0.50;;;14.60;99.90;;;;;;5076768;28;20685;-7
2023/12/24 06:17:57;;;;;;;0.40;0.40;;;14.60;99.90;;;;;;5077579;28;20187;-7
2023/12/24 06:20:22;;;;;;;0.50;0.50;;;14.60;99.90;;;;;;5077054;28;20180;-7
2023/12/24 06:22:48;;;;;;;0.40;0.40;;;14.60;99.90;;;;;;5077282;28;20207;-7
2023/12/24 06:25:13;;;;;;;0.40;0.40;;;14.70;99.90;;;;;;5077505;28;20280;-7
2023/12/24 06:27:39;;;;;;;0.40;0.40;;;14.70;99.90;;;;;;5077551;28;20175;-7
2023/12/24 06:30:06;;;;;;;0.50;0.50;;;14.70;99.90;;;;;;5077779;28;20161;-7
2023/12/24 06:32:31;;;;;;;0.20;0.20;;;14.70;99.90;;;;;;5077503;28;20164;-8
2023/12/24 06:34:58;;;;;;;0.30;0.30;;;14.70;99.90;;;;;;5077198;28;20169;-7
2023/12/24 06:37:24;;;;;;;0.40;0.40;;;14.80;99.90;;;;;;5076390;28;20183;-7
2023/12/24 06:39:49;;;;;;;0.30;0.30;;;14.80;99.90;;;;;;5076579;28;20172;-7
2023/12/24 06:42:15;;;;;;;0.30;0.30;;;14.80;99.90;;;;;;5077234;28;20246;-7
2023/12/24 06:44:42;;;;;;;0.40;0.40;;;14.80;99.90;;;;;;5073419;28;20322;-7
2023/12/24 06:47:07;;;;;;;0.30;0.30;;;14.80;99.90;;;;;;5073814;28;20232;-7
2023/12/24 06:49:34;;;;;;;0.37;0.37;;;14.80;99.90;;;;;;5073663;28;20268;-7
2023/12/24 06:52:00;;;;;;;0.30;0.30;;;14.80;99.90;;;;;;5074087;28;20326;-7
2023/12/24 06:54:25;;;;;;;0.20;0.20;;;14.80;99.90;;;;;;5073766;28;20173;-5
2023/12/24 06:56:51;;;;;;;0.40;0.40;;;14.70;99.90;;;;;;5073053;28;20179;-6
2023/12/24 06:59:17;;;;;;;0.47;0.30;;;14.70;99.90;;;;;;5072635;28;20183;-5
2023/12/24 07:01:43;;;;;;;0.40;0.40;;;14.70;99.90;;;;;;5073804;28;20211;-6
2023/12/24 07:04:08;;;;;;;0.60;0.50;;;14.70;99.90;;;;;;5073637;28;20182;-7
2023/12/24 07:06:35;;;;;;;0.40;0.40;;;14.70;99.90;;;;;;5072866;28;20203;-7
2023/12/24 07:09:01;;;;;;;0.30;0.30;;;14.70;99.90;;;;;;5072060;28;20195;-7
2023/12/24 07:11:26;;;;;;;0.30;0.30;;;14.60;99.90;;;;;;5072373;28;20177;-7
2023/12/24 07:13:52;;;;;;;0.43;0.30;;;14.70;99.90;;;;;;5074781;28;20174;-8
2023/12/24 07:19:33;;;;;;;0.60;0.50;;;14.60;99.90;;;;;;5077766;28;20198;-8
2023/12/24 07:21:59;;;;;;;0.40;0.40;;;14.60;99.90;;;;;;5076814;28;20195;-7
2023/12/24 07:24:25;;;;;;;0.40;0.40;;;14.60;99.90;;;;;;5078548;28;20786;-7
2023/12/24 07:26:52;;;;;;;0.30;0.30;;;14.60;99.90;;;;;;5080901;28;20216;-7
2023/12/24 07:29:17;;;;;;;0.30;0.30;;;14.60;99.90;;;;;;5081328;28;20221;-8
2023/12/24 07:31:43;;;;;;;0.30;0.30;;;14.60;99.90;;;;;;5080198;28;20224;-7
2023/12/24 07:34:09;;;;;;;0.27;0.27;;;14.60;99.90;;;;;;5080621;28;20462;-7
2023/12/24 07:36:53;;;;;;;0.30;0.30;;;14.60;99.90;;;;;;5080736;28;20307;-7
2023/12/24 07:39:18;;;;;;;0.40;0.40;;;14.60;99.90;;;;;;5080159;28;20648;-7
2023/12/24 07:41:44;;;;;;;0.20;0.20;;;14.60;99.90;;;;;;5079991;28;20446;-7
2023/12/24 07:44:10;;;;;;;0.20;0.20;;;14.60;99.90;;;;;;5080351;28;20217;-7
2023/12/24 07:46:35;;;;;;;0.30;0.30;;;14.60;99.90;;;;;;5080173;28;20220;-8
2023/12/24 07:49:01;;;;;;;0.53;0.37;;;14.50;99.90;;;;;;5078966;28;20456;-7
2023/12/24 07:51:28;;;;;;;0.30;0.30;;;14.60;99.90;;;;;;5079334;28;20247;-7
2023/12/24 07:53:54;;;;;;;0.37;0.37;;;14.60;99.90;;;;;;5080357;28;20167;-7
2023/12/24 07:56:40;;;;;;;0.30;0.30;;;14.60;99.90;;;;;;5079590;28;20196;-7
2023/12/24 07:59:05;;;;;;;0.40;0.40;;;14.70;99.90;;;;;;5080030;28;20548;-7
2023/12/24 08:01:31;;;;;;;0.40;0.40;;;14.70;99.90;;;;;;5079539;28;20207;-8
2023/12/24 08:03:57;;;;;;;0.30;0.30;;;14.80;99.90;;;;;;5078704;28;20253;-7
2023/12/24 08:06:25;;;;;;;0.40;0.40;;;14.90;99.90;;;;;;5080239;28;20204;-8
2023/12/24 08:08:50;;;;;;;0.30;0.30;;;15.00;99.90;;;;;;5080445;28;20829;-7
2023/12/24 08:11:16;;;;;;;0.30;0.30;;;15.10;99.90;;;;;;5079022;28;20789;-7
2023/12/24 08:13:42;;;;;;;0.20;0.20;;;15.10;99.90;;;;;;5079861;28;20234;-7
2023/12/24 08:16:13;;;;;;;0.23;0.23;;;15.20;99.90;;;;;;5078493;28;20582;-7
2023/12/24 08:18:39;;;;;;;0.30;0.30;;;15.20;99.90;;;;;;5079820;28;20229;-7
2023/12/24 08:21:07;;;;;;;0.20;0.20;;;15.20;99.90;;;;;;5078727;28;20178;-6
2023/12/24 08:23:32;;;;;;;0.40;0.40;;;15.20;99.90;;;;;;5079293;28;20185;-5
2023/12/24 08:26:11;;;;;;;0.40;0.40;;;15.20;99.90;;;;;;5079449;28;20221;-6
2023/12/24 08:28:36;;;;;;;0.37;0.30;;;15.20;99.90;;;;;;5078902;28;20182;-5
2023/12/24 08:31:02;;;;;;;0.40;0.40;;;15.20;99.90;;;;;;5079054;28;20258;-6
2023/12/24 08:33:28;;;;;;;0.20;0.20;;;15.10;99.90;;;;;;5078871;28;20185;-5
2023/12/24 08:35:55;;;;;;;0.27;0.27;;;15.10;99.90;;;;;;5078066;28;20677;-6
2023/12/24 08:38:20;;;;;;;0.30;0.30;;;15.10;99.90;;;;;;5079592;28;20161;-6
2023/12/24 08:40:47;;;;;;;0.30;0.30;;;15.00;99.90;;;;;;5078730;28;20177;-5
2023/12/24 08:43:12;;;;;;;0.40;0.40;;;15.00;99.90;;;;;;5079532;28;20187;-5
2023/12/24 08:45:46;;;;;;;0.30;0.30;;;15.00;99.90;;;;;;5078577;28;20482;-5
2023/12/24 08:48:11;;;;;;;0.30;0.30;;;14.90;99.90;;;;;;5078343;28;20698;-7
2023/12/24 08:50:37;;;;;;;0.40;0.40;;;14.90;99.90;;;;;;5078432;28;20176;-6
2023/12/24 08:53:03;;;;;;;0.30;0.30;;;14.90;99.90;;;;;;5078444;28;20188;-6
2023/12/24 08:55:34;;;;;;;0.30;0.30;;;14.90;99.90;;;;;;5078083;28;20176;-7
2023/12/24 08:58:00;;;;;;;0.30;0.30;;;14.80;99.90;;;;;;5078327;28;20679;-6
2023/12/24 09:00:26;;;;;;;0.30;0.30;;;14.80;99.90;;;;;;5076846;28;20190;-7
2023/12/24 09:02:51;;;;;;;0.20;0.20;;;14.80;99.90;;;;;;5077934;28;20185;-6
2023/12/24 09:05:23;;;;;;;0.27;0.27;;;14.70;99.90;;;;;;5078402;28;20206;-6
2023/12/24 09:07:49;;;;;;;0.40;0.40;;;14.70;99.90;;;;;;5078175;28;20174;-7
2023/12/24 09:10:14;;;;;;;0.30;0.30;;;14.80;99.90;;;;;;5076888;28;20176;-6
2023/12/24 09:12:40;;;;;;;0.40;0.40;;;14.70;99.90;;;;;;5077044;28;20275;-6
2023/12/24 09:15:08;;;;;;;0.40;0.40;;;14.70;99.90;;;;;;5077284;28;20239;-7
2023/12/24 09:17:33;;;;;;;1.50;0.50;;;14.70;99.90;;;;;;5077626;28;20185;-6
2023/12/24 09:19:59;;;;;;;0.50;0.50;;;14.70;99.90;;;;;;5076424;28;20178;-6
2023/12/24 09:22:25;;;;;;;0.60;0.40;;;14.70;99.90;;;;;;5076824;28;20287;-6
2023/12/24 09:25:07;;;;;;;1.20;0.50;;;14.70;99.90;;;;;;5077078;28;20486;-6
2023/12/24 09:27:34;;;;;;;0.43;0.40;;;14.70;99.90;;;;;;5077570;28;20574;-7
2023/12/24 09:30:04;;;;;;;1.13;0.50;;;14.80;99.90;;;;;;5087416;28;20174;-6
2023/12/24 09:32:30;;;;;;;0.43;0.40;;;14.70;99.90;;;;;;5102280;28;20175;-6
2023/12/24 09:35:43;;;;;;;0.40;0.40;;;14.80;99.90;;;;;;5098611;28;20175;-6
2023/12/24 09:38:12;;;;;;;0.47;0.47;;;14.80;99.90;;;;;;5080692;28;20178;-6
2023/12/24 09:40:37;;;;;;;4.13;1.40;;;14.80;99.90;;;;;;5074860;28;20207;-6
2023/12/24 09:43:04;;;;;;;1.93;0.60;;;14.80;99.90;;;;;;5060477;28;20272;-6
2023/12/24 09:45:33;;;;;;;2.07;0.70;;;14.90;99.90;;;;;;5077344;28;20222;-6
2023/12/24 09:47:59;;;;;;;1.00;0.50;;;14.90;99.90;;;;;;5077411;28;20147;-6
2023/12/24 09:50:24;;;;;;;0.63;0.50;;;14.90;99.90;;;;;;5077734;28;20185;-6
2023/12/24 09:52:50;;;;;;;0.47;0.40;;;14.90;99.90;;;;;;5073650;28;20299;-6
2023/12/24 09:55:16;;;;;;;1.00;0.53;;;14.90;99.90;;;;;;5080980;28;20183;-6
2023/12/24 09:57:41;;;;;;;0.63;0.50;;;14.90;99.90;;;;;;5097720;28;20177;-6
2023/12/24 10:00:09;;;;;;;2.73;0.60;;;14.90;99.90;;;;;;5079762;28;20180;-6
2023/12/24 10:02:36;;;;;;;0.87;0.53;;;14.90;99.90;;;;;;5079993;28;20249;-6
2023/12/24 10:05:06;;;;;;;0.60;0.50;;;14.90;99.90;;;;;;5079888;28;20576;-6
2023/12/24 10:07:38;;;;;;;1.53;0.70;;;14.90;99.90;;;;;;5097402;28;20244;-6
2023/12/24 10:10:07;;;;;;;1.40;0.50;;;14.90;99.90;;;;;;5079294;28;20227;-6
2023/12/24 10:12:38;;;;;;;2.40;0.90;;;14.80;99.90;;;;;;5079388;28;20583;-8
2023/12/24 10:15:04;;;;;;;0.80;0.50;;;14.90;99.90;;;;;;5080275;28;20700;-7
2023/12/24 10:17:31;;;;;;;2.20;0.80;;;14.90;99.90;;;;;;5080365;28;20182;-6
2023/12/24 10:19:58;;;;;;;0.83;0.60;;;14.90;99.90;;;;;;5080042;28;20231;-6
2023/12/24 10:22:25;;;;;;;1.50;0.60;;;14.90;99.90;;;;;;5079411;28;20183;-6
2023/12/24 10:25:06;;;;;;;2.80;0.80;;;14.90;99.90;;;;;;5096993;28;20627;-7
2023/12/24 10:27:32;;;;;;;1.10;0.83;;;14.90;99.90;;;;;;5079783;28;20709;-6
2023/12/24 10:30:12;;;;;;;1.50;0.50;;;14.90;99.90;;;;;;5079251;28;20174;-6
2023/12/24 10:32:39;;;;;;;0.83;0.57;;;14.90;99.90;;;;;;5096851;28;20174;-6
2023/12/24 10:35:05;;;;;;;4.23;0.60;;;14.90;99.90;;;;;;5079341;28;20178;-7
2023/12/24 10:37:31;;;;;;;1.70;0.70;;;14.90;99.90;;;;;;5096929;28;20257;-6
2023/12/24 10:40:14;;;;;;;2.63;0.57;;;14.90;99.90;;;;;;5078987;28;20289;-7
2023/12/24 10:42:40;;;;;;;1.33;0.80;;;14.90;99.90;;;;;;5079507;28;20262;-6
2023/12/24 10:45:07;;;;;;;5.03;1.00;;;14.90;99.90;;;;;;5078408;28;20202;-6
2023/12/24 10:47:34;;;;;;;2.00;0.90;;;14.90;99.90;;;;;;5078803;28;20203;-6
2023/12/24 10:50:03;;;;;;;6.67;1.43;;;14.90;99.90;;;;;;5078036;28;20249;-8
2023/12/24 10:52:29;;;;;;;4.27;1.87;;;14.90;99.90;;;;;;5096206;28;20258;-6
2023/12/24 10:54:57;;;;;;;7.83;1.90;;;14.90;99.90;;;;;;5078589;28;20167;-6
2023/12/24 10:57:44;;;;;;;6.97;2.20;;;14.90;99.90;;;;;;5079352;28;20467;-6
2023/12/24 11:00:14;;;;;;;10.53;1.90;;;14.90;99.90;;;;;;5083034;28;20171;-6
2023/12/24 11:02:49;;;;;;;4.20;2.03;;;15.00;99.90;;;;;;5099647;28;20184;-7
2023/12/24 11:05:39;;;;;;;8.97;2.20;;;15.00;99.90;;;;;;5082140;28;20200;-6
2023/12/24 11:08:05;;;;;;;5.70;1.83;;;15.00;99.90;;;;;;5098214;28;20165;-6
2023/12/24 11:10:42;;;;;;;5.77;2.33;;;15.00;99.90;;;;;;5092967;28;20572;-6
2023/12/24 11:13:36;;;;;;;7.77;2.37;;;15.00;99.90;;;;;;5093449;28;20697;-6
2023/12/24 11:16:09;;;;;;;3.33;1.60;;;15.10;99.90;;;;;;5090927;28;20175;-6
2023/12/24 11:18:56;;;;;;;4.77;1.70;;;15.10;99.90;;;;;;5100728;28;20148;-6
2023/12/24 11:21:22;;;;;;;4.73;1.90;;;15.10;99.90;;;;;;5082065;28;20754;-6
2023/12/24 11:24:12;;;;;;;8.67;2.13;;;15.10;99.90;;;;;;5080566;28;20181;-6
2023/12/24 11:26:37;;;;;;;5.97;2.10;;;15.10;99.90;;;;;;5047696;28;20211;-6
2023/12/24 11:29:47;;;;;;;4.43;2.50;;;15.10;99.90;;;;;;5054999;28;20350;-6
2023/12/24 11:32:25;;;;;;;7.03;2.30;;;15.10;99.90;;;;;;5055523;28;20454;-6
2023/12/24 11:34:57;;;;;;;7.23;2.70;;;15.10;99.90;;;;;;5074074;28;20272;-6
2023/12/24 11:37:31;;;;;;;7.00;3.10;;;15.10;99.90;;;;;;5055503;28;20240;-6
2023/12/24 11:40:18;;;;;;;8.23;3.33;;;15.10;99.90;;;;;;5055228;28;20182;-6
2023/12/24 11:42:46;;;;;;;11.97;4.93;;;15.10;99.90;;;;;;5057224;28;20182;-6
2023/12/24 11:45:26;;;;;;;18.50;5.17;;;15.10;99.90;;;;;;5056939;28;20209;-6
2023/12/24 11:47:53;;;;;;;10.57;5.23;;;15.10;99.90;;;;;;5056893;28;20177;-6
2023/12/24 11:50:19;;;;;;;11.73;5.47;;;15.10;99.90;;;;;;5055715;28;20570;-6
2023/12/24 11:52:49;;;;;;;12.27;6.00;;;15.10;99.90;;;;;;5072201;28;20521;-7
2023/12/24 11:55:21;;;;;;;13.33;6.03;;;15.10;99.90;;;;;;5056330;28;20578;-7
2023/12/24 11:57:48;;;;;;;15.03;6.83;;;15.10;99.90;;;;;;5072488;28;20269;-7
2023/12/24 12:00:27;;;;;;;17.53;6.93;;;15.10;99.90;;;;;;5054164;28;20194;-6
2023/12/24 12:02:58;;;;;;;15.10;7.27;;;15.10;99.90;;;;;;5053750;28;20711;-6
2023/12/24 12:05:25;;;;;;;11.77;6.63;;;15.10;99.90;;;;;;5071811;28;20380;-7
2023/12/24 12:07:52;;;;;;;14.90;7.17;;;15.00;99.90;;;;;;5071878;28;20227;-6
2023/12/24 12:10:18;;;;;;;12.13;7.07;;;15.00;99.90;;;;;;5051998;28;20259;-6
2023/12/24 12:12:44;;;;;;;12.87;7.23;;;15.00;99.90;;;;;;5052407;28;20233;-7
2023/12/24 12:15:11;;;;;;;13.30;7.43;;;15.10;99.90;;;;;;5072831;28;20177;-7
2023/12/24 12:17:37;;;;;;;14.07;7.90;;;15.00;99.90;;;;;;5071636;28;20165;-6
2023/12/24 12:20:04;;;;;;;18.23;8.03;;;15.00;99.90;;;;;;5055556;28;20259;-6
2023/12/24 12:22:30;;;;;;;14.60;7.73;;;15.00;99.90;;;;;;5054567;28;20172;-6
2023/12/24 12:24:56;;;;;;;17.07;8.60;;;15.00;99.90;;;;;;5072991;28;20186;-6
2023/12/24 12:27:21;;;;;;;15.03;7.10;;;15.00;99.90;;;;;;5056961;28;20186;-7
2023/12/24 12:29:47;;;;;;;14.60;7.77;;;15.00;99.90;;;;;;5055396;28;20177;-7
2023/12/24 12:32:13;;;;;;;14.43;7.37;;;15.00;99.90;;;;;;5054919;28;20191;-6
2023/12/24 12:34:40;;;;;;;14.43;7.67;;;15.00;99.90;;;;;;5073168;28;20261;-6
2023/12/24 12:37:06;;;;;;;13.37;7.50;;;15.00;99.90;;;;;;5054135;28;20183;-6
2023/12/24 12:39:32;;;;;;;11.73;6.80;;;14.90;99.90;;;;;;5054967;28;20174;-7
2023/12/24 12:41:57;;;;;;;13.70;7.30;;;14.90;99.90;;;;;;5054633;28;20239;-6
2023/12/24 12:44:24;;;;;;;14.40;7.73;;;14.90;99.90;;;;;;5072035;28;20261;-7
2023/12/24 12:46:50;;;;;;;15.03;7.73;;;14.90;99.90;;;;;;5084094;28;20482;-7
2023/12/24 12:49:16;;;;;;;14.00;8.13;;;15.00;99.90;;;;;;5051278;28;20565;-6
2023/12/24 12:51:42;;;;;;;12.47;7.17;;;15.00;99.90;;;;;;5071046;28;20162;-6
2023/12/24 12:54:21;;;;;;;13.60;7.60;;;15.00;99.90;;;;;;5060505;28;20261;-7
2023/12/24 12:56:52;;;;;;;12.67;6.97;;;15.00;99.90;;;;;;5060495;28;20175;-6
2023/12/24 12:59:20;;;;;;;16.47;6.87;;;15.00;99.90;;;;;;5078177;28;20159;-7
2023/12/24 13:01:46;;;;;;;13.63;7.03;;;15.00;99.90;;;;;;5060825;28;20188;-6
2023/12/24 13:04:26;;;;;;;14.33;6.80;;;15.00;99.90;;;;;;5078063;28;20168;-6
2023/12/24 13:06:54;;;;;;;12.00;6.60;;;15.00;99.90;;;;;;5060243;28;20533;-6
2023/12/24 13:09:20;;;;;;;10.17;6.30;;;15.10;99.90;;;;;;5077836;28;20534;-7